createdAt,value
2019-05-09T00:00:17.178Z,70
2019-05-09T00:01:19.329Z,70
2019-05-09T00:02:24.480Z,70
2019-05-09T00:03:26.643Z,71
2019-05-09T00:04:28.879Z,71
2019-05-09T00:05:33.454Z,71
2019-05-09T00:06:35.880Z,70
2019-05-09T00:07:38.063Z,70
2019-05-09T00:08:40.227Z,70
2019-05-09T00:09:44.995Z,70
2019-05-09T00:10:47.143Z,69
2019-05-09T00:11:49.705Z,69
2019-05-09T00:12:54.179Z,69
2019-05-09T00:13:56.394Z,70
2019-05-09T00:14:58.854Z,71
2019-05-09T00:16:01.029Z,71
2019-05-09T00:17:04.923Z,71
2019-05-09T00:18:07.107Z,70
2019-05-09T00:19:09.347Z,70
2019-05-09T00:20:14.659Z,71
2019-05-09T00:21:17.233Z,70
2019-05-09T00:22:19.744Z,71
2019-05-09T00:23:24.709Z,71
2019-05-09T00:24:26.922Z,71
2019-05-09T00:25:29.091Z,71
2019-05-09T00:26:31.271Z,71
2019-05-09T00:27:34.143Z,72
2019-05-09T00:28:37.022Z,72
2019-05-09T00:29:39.259Z,73
2019-05-09T00:30:43.181Z,73
2019-05-09T00:31:46.244Z,73
2019-05-09T00:32:48.464Z,72
2019-05-09T00:33:50.632Z,73
2019-05-09T00:34:54.174Z,73
2019-05-09T00:35:56.376Z,73
2019-05-09T00:36:58.819Z,73
2019-05-09T00:38:01.045Z,73
2019-05-09T00:39:05.435Z,72
2019-05-09T00:40:07.659Z,73
2019-05-09T00:41:09.845Z,73
2019-05-09T00:42:14.860Z,73
2019-05-09T00:43:17.041Z,72
2019-05-09T00:44:19.202Z,72
2019-05-09T00:45:23.699Z,72
2019-05-09T00:46:26.696Z,72
2019-05-09T00:47:28.908Z,72
2019-05-09T00:48:33.412Z,72
2019-05-09T00:49:36.101Z,72
2019-05-09T00:50:38.334Z,73
2019-05-09T00:51:40.452Z,73
2019-05-09T00:52:43.963Z,73
2019-05-09T00:53:46.137Z,73
2019-05-09T00:54:48.316Z,73
2019-05-09T00:55:50.543Z,72
2019-05-09T00:56:54.985Z,72
2019-05-09T00:57:57.235Z,73
2019-05-09T00:58:59.359Z,72
2019-05-09T01:00:04.381Z,73
2019-05-09T01:01:06.542Z,72
2019-05-09T01:02:08.717Z,73
2019-05-09T01:03:10.889Z,72
2019-05-09T01:04:14.569Z,73
2019-05-09T01:05:17.091Z,73
2019-05-09T01:06:19.296Z,73
2019-05-09T01:07:23.625Z,72
2019-05-09T01:08:25.823Z,72
2019-05-09T01:09:28.010Z,71
2019-05-09T01:10:30.222Z,71
2019-05-09T01:11:34.269Z,73
2019-05-09T01:12:36.508Z,73
2019-05-09T01:13:38.667Z,73
2019-05-09T01:14:43.402Z,72
2019-05-09T01:15:45.573Z,72
2019-05-09T01:16:47.749Z,72
2019-05-09T01:17:49.959Z,73
2019-05-09T01:18:55.192Z,72
2019-05-09T01:19:57.418Z,73
2019-05-09T01:20:59.581Z,72
2019-05-09T01:22:04.210Z,72
2019-05-09T01:23:06.824Z,71
2019-05-09T01:24:08.999Z,72
2019-05-09T01:25:13.579Z,73
2019-05-09T01:26:16.038Z,71
2019-05-09T01:27:18.250Z,72
2019-05-09T01:28:20.434Z,71
2019-05-09T01:29:24.322Z,72
2019-05-09T01:30:26.561Z,73
2019-05-09T01:31:28.742Z,73
2019-05-09T01:32:30.974Z,71
2019-05-09T01:33:34.209Z,71
2019-05-09T01:34:36.684Z,71
2019-05-09T01:35:38.904Z,71
2019-05-09T01:36:42.901Z,73
2019-05-09T01:37:45.593Z,73
2019-05-09T01:38:47.770Z,73
2019-05-09T01:39:49.947Z,73
2019-05-09T01:40:54.194Z,73
2019-05-09T01:41:57.134Z,73
2019-05-09T01:42:59.316Z,73
2019-05-09T01:44:03.856Z,73
2019-05-09T01:45:06.324Z,73
2019-05-09T01:46:08.896Z,73
2019-05-09T01:47:11.442Z,73
2019-05-09T01:48:14.927Z,73
2019-05-09T01:49:17.100Z,72
2019-05-09T01:50:20.042Z,71
2019-05-09T01:51:24.302Z,71
2019-05-09T01:52:26.574Z,72
2019-05-09T01:53:28.738Z,71
2019-05-09T01:54:33.007Z,71
2019-05-09T01:55:35.456Z,71
2019-05-09T01:56:37.896Z,71
2019-05-09T01:57:40.126Z,72
2019-05-09T01:58:44.052Z,72
2019-05-09T01:59:46.613Z,72
2019-05-09T02:00:48.769Z,72
2019-05-09T02:01:50.946Z,71
2019-05-09T02:02:55.272Z,72
2019-05-09T02:03:57.446Z,72
2019-05-09T02:04:59.696Z,72
2019-05-09T02:06:05.131Z,72
2019-05-09T02:07:07.292Z,72
2019-05-09T02:08:09.553Z,73
2019-05-09T02:09:14.206Z,73
2019-05-09T02:10:16.446Z,73
2019-05-09T02:11:18.620Z,74
2019-05-09T02:12:20.839Z,74
2019-05-09T02:13:24.474Z,73
2019-05-09T02:14:26.644Z,74
2019-05-09T02:15:28.895Z,73
2019-05-09T02:16:31.049Z,73
2019-05-09T02:17:35.053Z,73
2019-05-09T02:18:37.231Z,73
2019-05-09T02:19:39.337Z,73
2019-05-09T02:20:44.029Z,73
2019-05-09T02:21:46.849Z,72
2019-05-09T02:22:49.465Z,73
2019-05-09T02:23:54.302Z,73
2019-05-09T02:24:56.507Z,73
2019-05-09T02:25:58.721Z,73
2019-05-09T02:27:00.895Z,72
2019-05-09T02:28:04.419Z,72
2019-05-09T02:29:06.577Z,72
2019-05-09T02:30:09.541Z,73
2019-05-09T02:31:17.289Z,73
2019-05-09T02:32:19.478Z,72
2019-05-09T02:33:24.650Z,72
2019-05-09T02:34:27.749Z,73
2019-05-09T02:36:02.474Z,72
2019-05-09T02:37:04.977Z,72
2019-05-09T02:38:10.502Z,72
2019-05-09T02:39:13.764Z,72
2019-05-09T02:40:19.697Z,72
2019-05-09T02:41:22.482Z,72
2019-05-09T02:42:28.490Z,72
2019-05-09T02:43:30.964Z,72
2019-05-09T02:44:33.503Z,72
2019-05-09T02:45:39.300Z,72
2019-05-09T02:46:41.454Z,71
2019-05-09T02:47:44.084Z,72
2019-05-09T02:48:50.673Z,72
2019-05-09T02:49:53.518Z,72
2019-05-09T02:50:56.074Z,72
2019-05-09T02:52:02.310Z,72
2019-05-09T02:53:08.343Z,72
2019-05-09T02:54:11.513Z,72
2019-05-09T02:55:14.163Z,72
2019-05-09T02:56:20.198Z,72
2019-05-09T02:57:22.398Z,72
2019-05-09T02:58:27.850Z,72
2019-05-09T02:59:31.246Z,72
2019-05-09T03:00:33.476Z,73
2019-05-09T03:01:39.309Z,72
2019-05-09T03:02:41.847Z,72
2019-05-09T03:03:44.409Z,72
2019-05-09T03:04:50.215Z,72
2019-05-09T03:05:52.459Z,72
2019-05-09T03:06:55.188Z,72
2019-05-09T03:07:59.372Z,71
2019-05-09T03:09:02.625Z,71
2019-05-09T03:10:05.330Z,71
2019-05-09T03:11:10.816Z,72
2019-05-09T03:12:40.352Z,72
2019-05-09T03:13:42.487Z,72
2019-05-09T03:14:44.988Z,71
2019-05-09T03:15:50.945Z,71
2019-05-09T03:16:53.668Z,71
2019-05-09T03:17:59.476Z,72
2019-05-09T03:19:02.251Z,71
2019-05-09T03:20:05.097Z,72
2019-05-09T03:21:10.949Z,72
2019-05-09T03:22:13.092Z,73
2019-05-09T03:23:19.498Z,72
2019-05-09T03:24:21.775Z,71
2019-05-09T03:25:23.993Z,72
2019-05-09T03:26:29.825Z,72
2019-05-09T03:27:32.026Z,71
2019-05-09T03:28:34.547Z,72
2019-05-09T03:29:40.814Z,72
2019-05-09T03:30:43.451Z,72
2019-05-09T03:31:50.529Z,72
2019-05-09T03:32:53.800Z,72
2019-05-09T03:34:00.376Z,72
2019-05-09T03:35:02.889Z,71
2019-05-09T03:36:05.060Z,71
2019-05-09T03:37:09.681Z,71
2019-05-09T03:38:11.927Z,71
2019-05-09T03:39:14.371Z,72
2019-05-09T03:40:18.873Z,71
2019-05-09T03:41:21.131Z,71
2019-05-09T03:42:44.759Z,71
2019-05-09T03:43:49.377Z,71
2019-05-09T03:44:52.266Z,72
2019-05-09T03:45:54.500Z,72
2019-05-09T03:46:59.006Z,72
2019-05-09T03:48:01.196Z,72
2019-05-09T03:49:03.543Z,72
2019-05-09T03:50:07.973Z,72
2019-05-09T03:51:10.709Z,71
2019-05-09T03:52:13.156Z,72
2019-05-09T03:53:15.594Z,72
2019-05-09T03:54:19.315Z,72
2019-05-09T03:55:21.807Z,72
2019-05-09T03:56:24.049Z,72
2019-05-09T03:57:28.479Z,72
2019-05-09T03:58:30.669Z,72
2019-05-09T03:59:33.151Z,72
2019-05-09T04:00:37.915Z,72
2019-05-09T04:01:40.852Z,72
2019-05-09T04:02:43.627Z,72
2019-05-09T04:03:48.295Z,71
2019-05-09T04:04:50.733Z,71
2019-05-09T04:06:03.714Z,72
2019-05-09T04:07:08.372Z,72
2019-05-09T04:08:10.981Z,72
2019-05-09T04:09:13.197Z,72
2019-05-09T04:10:17.816Z,72
2019-05-09T04:11:20.310Z,72
2019-05-09T04:12:22.754Z,72
2019-05-09T04:13:25.226Z,72
2019-05-09T04:14:29.151Z,72
2019-05-09T04:15:31.335Z,72
2019-05-09T04:16:33.564Z,72
2019-05-09T04:17:35.720Z,72
2019-05-09T04:18:41.647Z,72
2019-05-09T04:19:43.817Z,72
2019-05-09T04:20:48.737Z,72
2019-05-09T04:21:50.986Z,71
2019-05-09T04:22:53.159Z,71
2019-05-09T04:23:55.370Z,72
2019-05-09T04:24:58.589Z,72
2019-05-09T04:26:00.749Z,72
2019-05-09T04:27:02.975Z,73
2019-05-09T04:28:07.266Z,72
2019-05-09T04:29:09.679Z,72
2019-05-09T04:30:11.854Z,72
2019-05-09T04:31:14.082Z,73
2019-05-09T04:32:19.020Z,72
2019-05-09T04:33:21.171Z,72
2019-05-09T04:34:23.425Z,72
2019-05-09T04:35:27.404Z,72
2019-05-09T04:36:30.226Z,72
2019-05-09T04:37:32.424Z,72
2019-05-09T04:38:34.581Z,72
2019-05-09T04:39:41.476Z,72
2019-05-09T04:40:49.527Z,72
2019-05-09T04:42:08.646Z,72
2019-05-09T04:43:39.637Z,72
2019-05-09T04:44:41.978Z,72
2019-05-09T04:45:44.243Z,72
2019-05-09T04:46:48.888Z,73
2019-05-09T04:47:51.360Z,72
2019-05-09T04:49:03.116Z,73
2019-05-09T04:50:07.745Z,72
2019-05-09T04:51:10.480Z,72
2019-05-09T04:52:13.019Z,72
2019-05-09T04:53:15.177Z,73
2019-05-09T04:54:18.949Z,72
2019-05-09T04:55:21.133Z,72
2019-05-09T04:56:23.348Z,72
2019-05-09T04:57:27.671Z,72
2019-05-09T04:58:30.043Z,73
2019-05-09T04:59:32.252Z,73
2019-05-09T05:00:34.432Z,73
2019-05-09T05:01:40.034Z,73
2019-05-09T05:02:42.212Z,73
2019-05-09T05:03:44.395Z,73
2019-05-09T05:04:49.052Z,72
2019-05-09T05:05:51.234Z,72
2019-05-09T05:06:53.465Z,73
2019-05-09T05:07:58.270Z,74
2019-05-09T05:09:00.480Z,73
2019-05-09T05:10:03.393Z,72
2019-05-09T05:11:08.268Z,72
2019-05-09T05:12:10.481Z,72
2019-05-09T05:13:30.336Z,72
2019-05-09T05:14:32.514Z,72
2019-05-09T05:15:34.980Z,73
2019-05-09T05:16:40.491Z,73
2019-05-09T05:17:43.004Z,72
2019-05-09T05:18:45.161Z,72
2019-05-09T05:19:49.712Z,73
2019-05-09T05:20:51.893Z,73
2019-05-09T05:21:54.114Z,72
2019-05-09T05:22:58.967Z,73
2019-05-09T05:24:01.493Z,73
2019-05-09T05:25:04.345Z,73
2019-05-09T05:26:09.115Z,73
2019-05-09T05:27:11.590Z,73
2019-05-09T05:28:14.036Z,73
2019-05-09T05:29:18.586Z,73
2019-05-09T05:30:20.771Z,73
2019-05-09T05:31:23.220Z,73
2019-05-09T05:32:25.404Z,73
2019-05-09T05:33:30.575Z,73
2019-05-09T05:34:32.819Z,72
2019-05-09T05:35:37.337Z,72
2019-05-09T05:36:40.069Z,73
2019-05-09T05:37:42.329Z,72
2019-05-09T05:38:44.503Z,72
2019-05-09T05:39:48.652Z,72
2019-05-09T05:40:51.178Z,73
2019-05-09T05:41:53.762Z,72
2019-05-09T05:42:58.949Z,71
2019-05-09T05:44:01.419Z,72
2019-05-09T05:45:03.605Z,73
2019-05-09T05:46:08.244Z,73
2019-05-09T05:47:10.432Z,74
2019-05-09T05:48:12.613Z,73
2019-05-09T05:49:15.075Z,73
2019-05-09T05:50:18.893Z,73
2019-05-09T05:51:21.081Z,72
2019-05-09T05:52:23.333Z,72
2019-05-09T05:53:27.914Z,72
2019-05-09T05:54:30.452Z,73
2019-05-09T05:55:32.616Z,72
2019-05-09T05:56:34.793Z,71
2019-05-09T05:57:39.531Z,71
2019-05-09T05:58:41.708Z,72
2019-05-09T05:59:43.940Z,72
2019-05-09T06:00:48.462Z,73
2019-05-09T06:01:50.633Z,72
2019-05-09T06:02:52.870Z,72
2019-05-09T06:03:55.055Z,72
2019-05-09T06:04:58.822Z,72
2019-05-09T06:06:00.978Z,72
2019-05-09T06:07:03.531Z,72
2019-05-09T06:08:08.438Z,72
2019-05-09T06:09:10.578Z,73
2019-05-09T06:10:12.798Z,72
2019-05-09T06:11:17.467Z,72
2019-05-09T06:12:20.188Z,73
2019-05-09T06:13:22.308Z,73
2019-05-09T06:14:24.464Z,72
2019-05-09T06:15:29.457Z,72
2019-05-09T06:16:31.631Z,72
2019-05-09T06:17:33.869Z,71
2019-05-09T06:18:39.203Z,72
2019-05-09T06:19:41.662Z,71
2019-05-09T06:20:49.649Z,72
2019-05-09T06:21:53.325Z,72
2019-05-09T06:22:55.445Z,72
2019-05-09T06:24:00.052Z,72
2019-05-09T06:25:03.965Z,71
2019-05-09T06:26:11.185Z,71
2019-05-09T06:27:14.101Z,71
2019-05-09T06:28:18.895Z,72
2019-05-09T06:29:21.114Z,71
2019-05-09T06:30:23.285Z,72
2019-05-09T06:31:25.470Z,71
2019-05-09T06:32:29.562Z,71
2019-05-09T06:33:32.022Z,71
2019-05-09T06:34:34.838Z,71
2019-05-09T06:35:38.829Z,72
2019-05-09T06:36:41.022Z,72
2019-05-09T06:37:43.225Z,73
2019-05-09T06:38:45.972Z,71
2019-05-09T06:39:50.344Z,71
2019-05-09T06:40:52.561Z,72
2019-05-09T06:41:54.786Z,71
2019-05-09T06:43:01.016Z,71
2019-05-09T06:44:21.693Z,71
2019-05-09T06:45:23.808Z,70
2019-05-09T06:46:28.617Z,70
2019-05-09T06:47:31.151Z,70
2019-05-09T06:48:33.288Z,70
2019-05-09T06:49:38.015Z,70
2019-05-09T06:50:40.558Z,70
2019-05-09T06:51:42.747Z,70
2019-05-09T06:52:44.988Z,70
2019-05-09T06:53:50.065Z,69
2019-05-09T06:54:52.309Z,70
2019-05-09T06:55:54.475Z,69
2019-05-09T06:57:00.015Z,69
2019-05-09T06:58:02.562Z,69
2019-05-09T06:59:04.753Z,68
2019-05-09T07:00:09.244Z,69
2019-05-09T07:01:11.356Z,69
2019-05-09T07:02:13.556Z,69
2019-05-09T07:03:18.226Z,68
2019-05-09T07:04:20.689Z,69
2019-05-09T07:05:22.948Z,69
2019-05-09T07:06:25.416Z,68
2019-05-09T07:07:30.286Z,68
2019-05-09T07:08:32.481Z,67
2019-05-09T07:09:34.661Z,68
2019-05-09T07:10:38.655Z,67
2019-05-09T07:11:40.848Z,67
2019-05-09T07:12:43.080Z,67
2019-05-09T07:13:47.605Z,67
2019-05-09T07:14:50.124Z,67
2019-05-09T07:15:52.346Z,67
2019-05-09T07:16:54.511Z,67
2019-05-09T07:17:58.898Z,67
2019-05-09T07:19:01.451Z,67
2019-05-09T07:20:03.646Z,67
2019-05-09T07:21:08.470Z,66
2019-05-09T07:22:11.065Z,66
2019-05-09T07:23:13.214Z,67
2019-05-09T07:24:18.451Z,66
2019-05-09T07:25:20.710Z,67
2019-05-09T07:26:22.941Z,66
2019-05-09T07:27:25.132Z,67
2019-05-09T07:28:29.163Z,68
2019-05-09T07:29:31.352Z,66
2019-05-09T07:30:33.927Z,66
2019-05-09T07:31:39.055Z,66
2019-05-09T07:32:41.522Z,66
2019-05-09T07:33:43.705Z,64
2019-05-09T07:34:48.293Z,64
2019-05-09T07:35:50.469Z,64
2019-05-09T07:36:52.730Z,63
2019-05-09T07:37:57.250Z,64
2019-05-09T07:38:59.947Z,64
2019-05-09T07:40:02.080Z,66
2019-05-09T07:41:04.733Z,64
2019-05-09T07:42:08.987Z,65
2019-05-09T07:43:11.175Z,64
2019-05-09T07:44:13.450Z,62
2019-05-09T07:45:18.312Z,61
2019-05-09T07:46:20.557Z,61
2019-05-09T07:47:22.745Z,61
2019-05-09T07:48:24.910Z,63
2019-05-09T07:49:29.274Z,63
2019-05-09T07:50:31.459Z,63
2019-05-09T07:51:33.718Z,62
2019-05-09T07:52:35.919Z,63
2019-05-09T07:53:39.323Z,62
2019-05-09T07:54:41.536Z,61
2019-05-09T07:55:43.790Z,61
2019-05-09T07:56:48.956Z,60
2019-05-09T07:58:00.218Z,60
2019-05-09T07:59:02.402Z,59
2019-05-09T08:00:04.591Z,60
2019-05-09T08:01:09.826Z,60
2019-05-09T08:02:12.349Z,59
2019-05-09T08:03:14.908Z,61
2019-05-09T08:04:19.569Z,60
2019-05-09T08:05:21.738Z,59
2019-05-09T08:06:24.037Z,59
2019-05-09T08:07:30.181Z,59
2019-05-09T08:08:32.816Z,59
2019-05-09T08:09:34.980Z,59
2019-05-09T08:10:39.392Z,60
2019-05-09T08:11:41.571Z,60
2019-05-09T08:12:44.016Z,58
2019-05-09T08:13:49.290Z,57
2019-05-09T08:15:20.922Z,57
2019-05-09T08:16:23.766Z,58
2019-05-09T08:17:29.442Z,57
2019-05-09T08:18:31.691Z,57
2019-05-09T08:19:33.874Z,55
2019-05-09T08:20:40.879Z,55
2019-05-09T08:21:43.163Z,56
2019-05-09T08:23:03.024Z,55
2019-05-09T08:24:08.351Z,56
2019-05-09T08:25:10.850Z,56
2019-05-09T08:26:13.484Z,56
2019-05-09T08:27:18.644Z,55
2019-05-09T08:28:21.151Z,55
2019-05-09T08:29:23.325Z,55
2019-05-09T08:30:40.793Z,55
2019-05-09T08:31:49.552Z,56
2019-05-09T08:32:51.761Z,59
2019-05-09T08:33:54.629Z,57
2019-05-09T08:34:58.631Z,57
2019-05-09T08:36:00.863Z,55
2019-05-09T08:37:03.067Z,55
2019-05-09T08:38:05.250Z,57
2019-05-09T08:39:09.441Z,56
2019-05-09T08:40:12.171Z,54
2019-05-09T08:41:15.125Z,54
2019-05-09T08:42:21.374Z,56
2019-05-09T08:43:23.608Z,55
2019-05-09T08:44:25.799Z,54
2019-05-09T08:45:32.851Z,53
2019-05-09T08:46:35.097Z,56
2019-05-09T08:47:39.734Z,54
2019-05-09T08:48:42.363Z,54
2019-05-09T08:49:50.303Z,53
2019-05-09T08:50:52.472Z,52
2019-05-09T08:52:20.362Z,51
2019-05-09T08:53:22.777Z,50
2019-05-09T08:54:26.932Z,52
2019-05-09T08:55:29.566Z,50
2019-05-09T08:56:31.833Z,52
2019-05-09T08:57:33.997Z,52
2019-05-09T08:58:39.259Z,51
2019-05-09T08:59:41.589Z,51
2019-05-09T09:00:43.772Z,52
2019-05-09T09:02:22.939Z,53
2019-05-09T09:03:25.070Z,51
2019-05-09T09:04:30.398Z,51
2019-05-09T09:05:32.848Z,51
2019-05-09T09:06:35.112Z,51
2019-05-09T09:07:39.348Z,51
2019-05-09T09:08:41.624Z,50
2019-05-09T09:09:43.847Z,50
2019-05-09T09:10:49.096Z,50
2019-05-09T09:11:51.366Z,50
2019-05-09T09:12:53.539Z,51
2019-05-09T09:13:58.355Z,51
2019-05-09T09:15:00.535Z,51
2019-05-09T09:16:23.532Z,51
2019-05-09T09:17:29.450Z,51
2019-05-09T09:18:31.581Z,51
2019-05-09T09:19:34.059Z,52
2019-05-09T09:20:39.023Z,48
2019-05-09T09:21:41.212Z,49
2019-05-09T09:22:43.416Z,49
2019-05-09T09:23:51.649Z,50
2019-05-09T09:24:53.843Z,50
2019-05-09T09:25:59.219Z,50
2019-05-09T09:27:01.406Z,49
2019-05-09T09:28:03.977Z,52
2019-05-09T09:29:08.656Z,52
2019-05-09T09:30:29.725Z,52
2019-05-09T09:31:32.407Z,51
2019-05-09T09:32:34.883Z,49
2019-05-09T09:33:38.877Z,50
2019-05-09T09:34:41.074Z,50
2019-05-09T09:35:43.254Z,51
2019-05-09T09:36:47.820Z,49
2019-05-09T09:37:53.547Z,47
2019-05-09T09:38:55.788Z,46
2019-05-09T09:40:01.264Z,46
2019-05-09T09:41:03.824Z,47
2019-05-09T09:42:09.776Z,47
2019-05-09T09:43:11.935Z,46
2019-05-09T09:44:14.190Z,46
2019-05-09T09:45:19.434Z,46
2019-05-09T09:46:21.693Z,46
2019-05-09T09:47:24.737Z,47
2019-05-09T09:48:29.349Z,50
2019-05-09T09:49:31.620Z,49
2019-05-09T09:50:34.213Z,46
2019-05-09T09:51:39.163Z,44
2019-05-09T09:52:41.385Z,44
2019-05-09T09:53:43.649Z,43
2019-05-09T09:54:49.421Z,44
2019-05-09T09:55:51.625Z,42
2019-05-09T09:56:54.139Z,42
2019-05-09T09:57:58.807Z,42
2019-05-09T09:59:01.027Z,41
2019-05-09T10:00:03.614Z,41
2019-05-09T10:01:05.818Z,43
2019-05-09T10:02:11.753Z,44
2019-05-09T10:03:14.343Z,44
2019-05-09T10:04:25.227Z,44
2019-05-09T10:05:28.742Z,44
2019-05-09T10:06:30.959Z,44
2019-05-09T10:07:33.140Z,44
2019-05-09T10:08:39.172Z,44
2019-05-09T10:09:42.549Z,43
2019-05-09T10:10:44.737Z,43
2019-05-09T10:11:49.291Z,45
2019-05-09T10:12:51.856Z,44
2019-05-09T10:13:54.128Z,45
2019-05-09T10:14:58.570Z,43
2019-05-09T10:16:00.811Z,44
2019-05-09T10:17:04.680Z,44
2019-05-09T10:18:08.799Z,43
2019-05-09T10:19:10.999Z,43
2019-05-09T10:20:13.469Z,45
2019-05-09T10:21:15.648Z,44
2019-05-09T10:22:27.981Z,44
2019-05-09T10:23:30.581Z,44
2019-05-09T10:24:32.807Z,42
2019-05-09T10:25:34.997Z,43
2019-05-09T10:26:39.878Z,42
2019-05-09T10:27:42.079Z,43
2019-05-09T10:28:49.410Z,44
2019-05-09T10:29:51.653Z,43
2019-05-09T10:30:54.217Z,44
2019-05-09T10:31:58.970Z,43
2019-05-09T10:33:01.563Z,42
2019-05-09T10:34:03.748Z,42
2019-05-09T10:35:08.483Z,42
2019-05-09T10:36:11.018Z,42
2019-05-09T10:37:13.279Z,40
2019-05-09T10:38:18.042Z,40
2019-05-09T10:39:21.289Z,42
2019-05-09T10:40:23.946Z,41
2019-05-09T10:41:26.432Z,42
2019-05-09T10:42:30.284Z,40
2019-05-09T10:43:39.895Z,40
2019-05-09T10:44:42.031Z,40
2019-05-09T10:45:44.257Z,39
2019-05-09T10:47:03.116Z,40
2019-05-09T10:48:05.302Z,41
2019-05-09T10:49:09.740Z,40
2019-05-09T10:50:11.941Z,39
2019-05-09T10:51:14.424Z,39
2019-05-09T10:52:19.365Z,39
2019-05-09T10:53:21.570Z,39
2019-05-09T10:54:23.808Z,39
2019-05-09T10:55:28.921Z,38
2019-05-09T10:56:31.108Z,39
2019-05-09T10:57:34.038Z,39
2019-05-09T10:58:38.644Z,38
2019-05-09T10:59:40.908Z,38
2019-05-09T11:00:43.115Z,39
2019-05-09T11:01:49.366Z,37
2019-05-09T11:02:52.328Z,39
2019-05-09T11:03:54.520Z,36
2019-05-09T11:04:58.868Z,37
2019-05-09T11:06:01.350Z,36
2019-05-09T11:07:04.340Z,36
2019-05-09T11:08:09.115Z,35
2019-05-09T11:09:11.400Z,36
2019-05-09T11:10:33.481Z,36
2019-05-09T11:11:35.833Z,35
2019-05-09T11:12:38.057Z,35
2019-05-09T11:13:40.260Z,35
2019-05-09T11:14:42.789Z,35
2019-05-09T11:15:47.743Z,36
2019-05-09T11:17:22.228Z,37
2019-05-09T11:18:24.374Z,37
2019-05-09T11:19:29.444Z,37
2019-05-09T11:20:31.599Z,38
2019-05-09T11:21:33.882Z,37
2019-05-09T11:22:39.320Z,37
2019-05-09T11:23:41.506Z,38
2019-05-09T11:24:52.606Z,38
2019-05-09T11:25:54.756Z,36
2019-05-09T11:26:59.710Z,36
2019-05-09T11:28:18.459Z,37
2019-05-09T11:29:20.588Z,39
2019-05-09T11:30:22.778Z,39
2019-05-09T11:31:24.957Z,39
2019-05-09T11:32:29.226Z,38
2019-05-09T11:33:31.406Z,37
2019-05-09T11:34:33.686Z,39
2019-05-09T11:35:38.943Z,41
2019-05-09T11:36:41.178Z,40
2019-05-09T11:37:43.947Z,36
2019-05-09T11:38:49.956Z,34
2019-05-09T11:39:52.494Z,35
2019-05-09T11:40:54.680Z,35
2019-05-09T11:41:59.957Z,37
2019-05-09T11:43:02.441Z,40
2019-05-09T11:44:05.110Z,40
2019-05-09T11:45:10.373Z,40
2019-05-09T11:46:12.937Z,40
2019-05-09T11:47:47.470Z,40
2019-05-09T11:48:50.051Z,42
2019-05-09T11:49:52.266Z,41
2019-05-09T11:50:54.773Z,41
2019-05-09T11:51:58.999Z,40
2019-05-09T11:53:01.235Z,40
2019-05-09T11:54:03.734Z,40
2019-05-09T11:55:43.546Z,41
2019-05-09T11:56:48.542Z,40
2019-05-09T11:57:50.739Z,40
2019-05-09T11:58:53.031Z,40
2019-05-09T11:59:57.673Z,39
2019-05-09T12:01:04.668Z,39
2019-05-09T12:02:09.726Z,39
2019-05-09T12:03:12.309Z,39
2019-05-09T12:04:14.950Z,38
2019-05-09T12:05:20.434Z,39
2019-05-09T12:06:22.672Z,40
2019-05-09T12:07:24.884Z,40
2019-05-09T12:08:27.057Z,41
2019-05-09T12:09:30.574Z,43
2019-05-09T12:10:32.768Z,39
2019-05-09T12:11:35.009Z,42
2019-05-09T12:12:42.074Z,40
2019-05-09T12:13:44.319Z,38
2019-05-09T12:14:49.216Z,38
2019-05-09T12:15:51.427Z,37
2019-05-09T12:16:53.708Z,37
2019-05-09T12:18:12.512Z,38
2019-05-09T12:19:14.797Z,38
2019-05-09T12:20:19.933Z,37
2019-05-09T12:21:22.575Z,37
2019-05-09T12:22:27.912Z,38
2019-05-09T12:23:30.540Z,38
2019-05-09T12:24:32.761Z,37
2019-05-09T12:25:34.971Z,35
2019-05-09T12:26:40.037Z,35
2019-05-09T12:27:42.501Z,35
2019-05-09T12:28:45.058Z,35
2019-05-09T12:29:50.104Z,35
2019-05-09T12:30:52.613Z,35
2019-05-09T12:31:55.133Z,35
2019-05-09T12:32:59.917Z,35
2019-05-09T12:34:02.865Z,35
2019-05-09T12:35:05.418Z,35
2019-05-09T12:36:10.289Z,35
2019-05-09T12:37:12.473Z,34
2019-05-09T12:38:14.998Z,35
2019-05-09T12:39:20.043Z,35
2019-05-09T12:40:22.244Z,35
2019-05-09T12:41:24.850Z,35
2019-05-09T12:42:30.385Z,36
2019-05-09T12:43:32.641Z,36
2019-05-09T12:44:34.924Z,35
2019-05-09T12:45:39.771Z,34
2019-05-09T12:46:42.003Z,34
2019-05-09T12:47:44.186Z,35
2019-05-09T12:48:49.299Z,34
2019-05-09T12:49:51.771Z,33
2019-05-09T12:50:53.975Z,34
2019-05-09T12:51:59.750Z,35
2019-05-09T12:53:01.933Z,38
2019-05-09T12:54:04.591Z,36
2019-05-09T12:55:13.181Z,36
2019-05-09T12:56:15.397Z,36
2019-05-09T12:57:20.357Z,38
2019-05-09T12:58:22.933Z,37
2019-05-09T12:59:25.170Z,38
2019-05-09T13:00:29.340Z,37
2019-05-09T13:01:31.597Z,37
2019-05-09T13:02:33.775Z,36
2019-05-09T13:03:39.273Z,38
2019-05-09T13:04:41.738Z,38
2019-05-09T13:05:47.648Z,38
2019-05-09T13:06:50.048Z,37
2019-05-09T13:07:52.255Z,37
2019-05-09T13:08:54.504Z,36
2019-05-09T13:09:59.348Z,36
2019-05-09T13:11:03.535Z,37
2019-05-09T13:12:05.714Z,37
2019-05-09T13:13:10.660Z,36
2019-05-09T13:14:12.837Z,36
2019-05-09T13:15:18.920Z,36
2019-05-09T13:16:21.108Z,37
2019-05-09T13:17:23.354Z,36
2019-05-09T13:18:30.574Z,36
2019-05-09T13:19:33.768Z,34
2019-05-09T13:20:38.586Z,34
2019-05-09T13:21:40.789Z,33
2019-05-09T13:22:42.939Z,33
2019-05-09T13:23:52.613Z,32
2019-05-09T13:24:55.135Z,33
2019-05-09T13:25:59.467Z,33
2019-05-09T13:27:02.852Z,33
2019-05-09T13:28:08.450Z,33
2019-05-09T13:29:11.110Z,33
2019-05-09T13:30:13.309Z,32
2019-05-09T13:31:18.803Z,35
2019-05-09T13:32:21.424Z,32
2019-05-09T13:33:24.181Z,31
2019-05-09T13:34:29.270Z,31
2019-05-09T13:35:31.479Z,31
2019-05-09T13:36:33.947Z,32
2019-05-09T13:37:40.155Z,32
2019-05-09T13:39:09.298Z,31
2019-05-09T13:40:13.050Z,31
2019-05-09T13:41:18.514Z,32
2019-05-09T13:42:20.935Z,32
2019-05-09T13:43:23.126Z,32
2019-05-09T13:44:28.169Z,31
2019-05-09T13:45:30.718Z,32
2019-05-09T13:46:32.911Z,32
2019-05-09T13:47:35.109Z,32
2019-05-09T13:49:16.443Z,33
2019-05-09T13:50:21.356Z,34
2019-05-09T13:51:23.546Z,35
2019-05-09T13:52:28.515Z,34
2019-05-09T13:53:30.783Z,33
2019-05-09T13:54:32.960Z,34
2019-05-09T13:55:35.162Z,35
2019-05-09T13:56:37.657Z,35
2019-05-09T13:57:40.114Z,35
2019-05-09T13:58:42.370Z,35
2019-05-09T13:59:44.567Z,35
2019-05-09T14:01:03.409Z,36
2019-05-09T14:02:05.857Z,36
2019-05-09T14:03:09.149Z,37
2019-05-09T14:04:11.756Z,38
2019-05-09T14:05:14.744Z,38
2019-05-09T14:06:17.626Z,39
2019-05-09T14:07:20.340Z,38
2019-05-09T14:08:22.952Z,36
2019-05-09T14:09:25.575Z,37
2019-05-09T14:10:31.809Z,37
2019-05-09T14:11:34.085Z,37
2019-05-09T14:12:39.156Z,37
2019-05-09T14:13:41.627Z,38
2019-05-09T14:14:43.823Z,38
2019-05-09T14:15:49.559Z,37
2019-05-09T14:16:51.742Z,37
2019-05-09T14:17:54.969Z,39
2019-05-09T14:19:50.798Z,37
2019-05-09T14:20:54.019Z,35
2019-05-09T14:22:00.065Z,36
2019-05-09T14:23:02.480Z,36
2019-05-09T14:24:20.325Z,35
2019-05-09T14:25:22.461Z,35
2019-05-09T14:26:27.588Z,35
2019-05-09T14:27:30.511Z,33
2019-05-09T14:28:32.702Z,33
2019-05-09T14:29:34.914Z,33
2019-05-09T14:30:39.770Z,34
2019-05-09T14:31:42.752Z,35
2019-05-09T14:32:45.245Z,37
2019-05-09T14:33:48.849Z,34
2019-05-09T14:34:51.071Z,33
2019-05-09T14:35:53.338Z,32
2019-05-09T14:36:58.323Z,30
2019-05-09T14:38:01.061Z,31
2019-05-09T14:39:03.340Z,32
2019-05-09T14:40:11.014Z,30
2019-05-09T14:41:13.292Z,30
2019-05-09T14:42:15.758Z,31
2019-05-09T14:43:19.480Z,30
2019-05-09T14:44:21.640Z,31
2019-05-09T14:45:23.845Z,32
2019-05-09T14:46:28.614Z,33
2019-05-09T14:47:30.812Z,31
2019-05-09T14:48:33.015Z,31
2019-05-09T14:49:50.808Z,30
2019-05-09T14:50:53.779Z,32
2019-05-09T14:51:58.575Z,32
2019-05-09T14:53:01.056Z,33
2019-05-09T14:54:03.308Z,34
2019-05-09T14:55:08.657Z,36
2019-05-09T14:56:10.961Z,34
2019-05-09T14:57:13.439Z,35
2019-05-09T14:58:18.953Z,36
2019-05-09T14:59:21.370Z,36
2019-05-09T15:00:23.576Z,36
2019-05-09T15:01:29.767Z,36
2019-05-09T15:02:32.320Z,34
2019-05-09T15:03:34.895Z,34
2019-05-09T15:04:39.577Z,34
2019-05-09T15:05:41.772Z,34
2019-05-09T15:06:44.256Z,35
2019-05-09T15:07:48.573Z,36
2019-05-09T15:08:50.804Z,35
2019-05-09T15:10:00.431Z,38
2019-05-09T15:11:02.628Z,39
2019-05-09T15:12:04.833Z,36
2019-05-09T15:13:09.764Z,36